sensor_id;sensor_type;location;lat;lon;timestamp;pressure;altitude;pressure_sealevel;temperature;humidity
73453;BME280;61687;56.232;43.854;2023-05-24T00:01:52;101049.00;;;21.49;36.65
73453;BME280;61687;56.232;43.854;2023-05-24T00:04:22;101032.75;;;21.44;37.45
73453;BME280;61687;56.232;43.854;2023-05-24T00:06:50;101033.59;;;21.41;37.30
73453;BME280;61687;56.232;43.854;2023-05-24T00:09:20;101034.44;;;21.38;37.60
73453;BME280;61687;56.232;43.854;2023-05-24T00:11:46;101040.00;;;21.38;38.17
73453;BME280;61687;56.232;43.854;2023-05-24T00:14:13;101036.91;;;21.32;38.21
73453;BME280;61687;56.232;43.854;2023-05-24T00:16:39;101037.00;;;21.28;38.39
73453;BME280;61687;56.232;43.854;2023-05-24T00:19:05;101047.78;;;21.26;38.97
73453;BME280;61687;56.232;43.854;2023-05-24T00:21:32;101048.19;;;21.25;39.01
73453;BME280;61687;56.232;43.854;2023-05-24T00:24:00;101040.69;;;21.22;39.26
73453;BME280;61687;56.232;43.854;2023-05-24T00:26:26;101038.31;;;21.20;39.22
73453;BME280;61687;56.232;43.854;2023-05-24T00:28:56;101036.81;;;21.15;39.02
73453;BME280;61687;56.232;43.854;2023-05-24T00:31:22;101030.94;;;21.10;39.42
73453;BME280;61687;56.232;43.854;2023-05-24T00:33:47;101027.78;;;21.08;38.80
73453;BME280;61687;56.232;43.854;2023-05-24T00:36:13;101025.41;;;21.06;39.01
73453;BME280;61687;56.232;43.854;2023-05-24T00:38:40;101027.09;;;21.00;38.70
73453;BME280;61687;56.232;43.854;2023-05-24T00:41:06;101028.31;;;20.99;38.69
73453;BME280;61687;56.232;43.854;2023-05-24T00:43:32;101018.03;;;20.96;38.75
73453;BME280;61687;56.232;43.854;2023-05-24T00:48:41;101012.63;;;20.85;38.98
73453;BME280;61687;56.232;43.854;2023-05-24T00:51:08;101008.31;;;20.80;39.33
73453;BME280;61687;56.232;43.854;2023-05-24T00:53:35;101006.69;;;20.79;39.17
73453;BME280;61687;56.232;43.854;2023-05-24T00:56:02;101010.34;;;20.76;39.96
73453;BME280;61687;56.232;43.854;2023-05-24T00:58:30;101010.75;;;20.74;41.02
73453;BME280;61687;56.232;43.854;2023-05-24T01:00:58;101011.19;;;20.73;40.55
73453;BME280;61687;56.232;43.854;2023-05-24T01:03:25;101005.25;;;20.71;40.07
73453;BME280;61687;56.232;43.854;2023-05-24T01:05:57;101004.09;;;20.68;39.58
73453;BME280;61687;56.232;43.854;2023-05-24T01:11:15;101001.34;;;20.65;39.47
73453;BME280;61687;56.232;43.854;2023-05-24T01:14:01;100996.22;;;20.63;39.39
73453;BME280;61687;56.232;43.854;2023-05-24T01:19:04;100997.34;;;20.66;39.70
73453;BME280;61687;56.232;43.854;2023-05-24T01:22:07;101001.78;;;20.63;39.71
73453;BME280;61687;56.232;43.854;2023-05-24T01:24:54;100999.41;;;20.62;39.66
73453;BME280;61687;56.232;43.854;2023-05-24T01:27:23;100993.47;;;20.59;39.53
73453;BME280;61687;56.232;43.854;2023-05-24T01:29:50;101002.22;;;20.58;39.48
73453;BME280;61687;56.232;43.854;2023-05-24T01:32:18;100994.69;;;20.58;39.35
73453;BME280;61687;56.232;43.854;2023-05-24T01:34:45;100993.88;;;20.58;39.24
73453;BME280;61687;56.232;43.854;2023-05-24T01:37:11;100987.91;;;20.59;39.45
73453;BME280;61687;56.232;43.854;2023-05-24T01:39:39;100990.31;;;20.57;39.74
73453;BME280;61687;56.232;43.854;2023-05-24T01:42:48;100994.34;;;20.53;39.96
73453;BME280;61687;56.232;43.854;2023-05-24T01:45:22;100998.31;;;20.55;39.62
73453;BME280;61687;56.232;43.854;2023-05-24T01:48:01;101002.34;;;20.51;39.58
73453;BME280;61687;56.232;43.854;2023-05-24T01:50:37;101006.34;;;20.50;40.44
73453;BME280;61687;56.232;43.854;2023-05-24T01:53:06;100996.00;;;20.50;40.61
73453;BME280;61687;56.232;43.854;2023-05-24T01:55:33;100994.44;;;20.49;39.97
73453;BME280;61687;56.232;43.854;2023-05-24T01:58:02;100998.41;;;20.48;39.90
73453;BME280;61687;56.232;43.854;2023-05-24T02:00:30;100991.22;;;20.51;40.32
73453;BME280;61687;56.232;43.854;2023-05-24T02:02:57;100993.59;;;20.52;40.71
73453;BME280;61687;56.232;43.854;2023-05-24T02:05:23;100986.81;;;20.53;40.79
73453;BME280;61687;56.232;43.854;2023-05-24T02:07:49;100976.88;;;20.52;41.61
73453;BME280;61687;56.232;43.854;2023-05-24T02:10:15;100969.81;;;20.44;40.73
73453;BME280;61687;56.232;43.854;2023-05-24T02:12:42;100975.09;;;20.38;41.09
73453;BME280;61687;56.232;43.854;2023-05-24T02:15:08;100984.63;;;20.37;40.92
73453;BME280;61687;56.232;43.854;2023-05-24T02:17:35;100978.28;;;20.37;40.82
73453;BME280;61687;56.232;43.854;2023-05-24T02:20:02;100985.78;;;20.40;40.75
73453;BME280;61687;56.232;43.854;2023-05-24T02:22:33;100996.03;;;20.47;40.24
73453;BME280;61687;56.232;43.854;2023-05-24T02:24:59;100997.09;;;20.56;40.23
73453;BME280;61687;56.232;43.854;2023-05-24T02:27:25;100994.56;;;20.66;40.04
73453;BME280;61687;56.232;43.854;2023-05-24T02:29:51;100997.31;;;20.69;39.75
73453;BME280;61687;56.232;43.854;2023-05-24T02:32:18;100992.41;;;20.77;39.88
73453;BME280;61687;56.232;43.854;2023-05-24T02:34:44;100991.53;;;20.84;39.37
73453;BME280;61687;56.232;43.854;2023-05-24T02:37:10;100986.69;;;20.88;39.89
73453;BME280;61687;56.232;43.854;2023-05-24T02:39:40;100980.28;;;20.91;40.22
73453;BME280;61687;56.232;43.854;2023-05-24T02:42:07;100979.44;;;20.94;40.72
73453;BME280;61687;56.232;43.854;2023-05-24T02:44:34;100996.09;;;20.98;40.20
73453;BME280;61687;56.232;43.854;2023-05-24T02:47:00;100990.84;;;21.04;39.80
73453;BME280;61687;56.232;43.854;2023-05-24T02:49:27;101003.13;;;21.06;39.89
73453;BME280;61687;56.232;43.854;2023-05-24T02:51:53;100991.59;;;21.04;40.52
73453;BME280;61687;56.232;43.854;2023-05-24T02:54:19;100998.41;;;21.03;40.26
73453;BME280;61687;56.232;43.854;2023-05-24T02:56:45;100992.47;;;21.01;40.84
73453;BME280;61687;56.232;43.854;2023-05-24T02:59:15;100995.59;;;21.03;40.74
73453;BME280;61687;56.232;43.854;2023-05-24T03:01:41;100995.91;;;21.09;40.94
73453;BME280;61687;56.232;43.854;2023-05-24T03:04:07;100997.00;;;21.15;40.63
73453;BME280;61687;56.232;43.854;2023-05-24T03:06:33;100985.81;;;21.19;40.48
73453;BME280;61687;56.232;43.854;2023-05-24T03:08:59;100988.22;;;21.16;40.67
73453;BME280;61687;56.232;43.854;2023-05-24T03:11:25;100997.00;;;21.15;40.48
73453;BME280;61687;56.232;43.854;2023-05-24T03:13:51;100993.13;;;21.09;41.46
73453;BME280;61687;56.232;43.854;2023-05-24T03:16:18;100992.81;;;21.03;40.94
73453;BME280;61687;56.232;43.854;2023-05-24T03:18:47;100988.88;;;21.00;41.45
73453;BME280;61687;56.232;43.854;2023-05-24T03:21:19;100991.66;;;21.00;41.36
73453;BME280;61687;56.232;43.854;2023-05-24T03:23:45;100992.94;;;20.96;41.21
73453;BME280;61687;56.232;43.854;2023-05-24T03:26:11;100993.78;;;20.93;41.43
73453;BME280;61687;56.232;43.854;2023-05-24T03:28:40;100988.28;;;20.89;41.94
73453;BME280;61687;56.232;43.854;2023-05-24T03:31:07;100991.09;;;20.85;41.83
73453;BME280;61687;56.232;43.854;2023-05-24T03:33:33;100995.53;;;20.83;42.08
73453;BME280;61687;56.232;43.854;2023-05-24T03:35:59;101001.53;;;20.81;42.11
73453;BME280;61687;56.232;43.854;2023-05-24T03:38:25;100997.91;;;20.84;42.26
73453;BME280;61687;56.232;43.854;2023-05-24T03:40:51;100997.41;;;20.90;42.72
73453;BME280;61687;56.232;43.854;2023-05-24T03:43:18;101009.75;;;20.88;42.33
73453;BME280;61687;56.232;43.854;2023-05-24T03:45:47;101009.75;;;20.88;43.53
73453;BME280;61687;56.232;43.854;2023-05-24T03:48:13;101004.69;;;20.83;44.57
73453;BME280;61687;56.232;43.854;2023-05-24T03:50:39;100987.25;;;20.76;46.25
73453;BME280;61687;56.232;43.854;2023-05-24T03:53:05;100985.13;;;20.59;48.31
73453;BME280;61687;56.232;43.854;2023-05-24T03:55:31;100978.94;;;20.48;49.30
73453;BME280;61687;56.232;43.854;2023-05-24T03:57:57;100970.69;;;20.37;49.90
73453;BME280;61687;56.232;43.854;2023-05-24T04:00:22;100970.09;;;20.26;50.17
73453;BME280;61687;56.232;43.854;2023-05-24T04:02:48;100960.63;;;20.20;51.63
73453;BME280;61687;56.232;43.854;2023-05-24T04:05:15;100961.06;;;20.14;52.00
73453;BME280;61687;56.232;43.854;2023-05-24T04:07:41;100948.81;;;20.12;50.74
73453;BME280;61687;56.232;43.854;2023-05-24T04:10:08;100942.50;;;20.08;50.60
73453;BME280;61687;56.232;43.854;2023-05-24T04:12:34;100942.50;;;20.08;51.00
73453;BME280;61687;56.232;43.854;2023-05-24T04:15:01;100954.38;;;20.12;51.28
73453;BME280;61687;56.232;43.854;2023-05-24T04:17:30;100941.59;;;20.14;50.99
73453;BME280;61687;56.232;43.854;2023-05-24T04:20:00;100942.00;;;20.16;51.90
73453;BME280;61687;56.232;43.854;2023-05-24T04:22:29;100947.94;;;20.19;50.73
73453;BME280;61687;56.232;43.854;2023-05-24T04:24:56;100946.72;;;20.20;51.22
73453;BME280;61687;56.232;43.854;2023-05-24T04:27:22;100947.94;;;20.19;50.91
73453;BME280;61687;56.232;43.854;2023-05-24T04:29:50;100954.69;;;20.18;49.79
73453;BME280;61687;56.232;43.854;2023-05-24T04:32:17;100939.97;;;20.17;50.59
73453;BME280;61687;56.232;43.854;2023-05-24T04:34:44;100935.63;;;20.16;49.49
73453;BME280;61687;56.232;43.854;2023-05-24T04:37:11;100930.75;;;20.24;50.08
73453;BME280;61687;56.232;43.854;2023-05-24T04:39:38;100933.78;;;20.33;50.29
73453;BME280;61687;56.232;43.854;2023-05-24T04:42:06;100943.19;;;20.43;49.47
73453;BME280;61687;56.232;43.854;2023-05-24T04:44:32;100932.72;;;20.51;47.83
73453;BME280;61687;56.232;43.854;2023-05-24T04:46:58;100928.94;;;20.65;47.39
73453;BME280;61687;56.232;43.854;2023-05-24T04:49:25;100919.16;;;20.80;47.29
73453;BME280;61687;56.232;43.854;2023-05-24T04:51:51;100914.50;;;20.97;46.96
73453;BME280;61687;56.232;43.854;2023-05-24T04:54:17;100906.69;;;21.12;46.37
73453;BME280;61687;56.232;43.854;2023-05-24T04:56:43;100894.88;;;21.25;45.66
73453;BME280;61687;56.232;43.854;2023-05-24T04:59:09;100886.97;;;21.43;45.27
73453;BME280;61687;56.232;43.854;2023-05-24T05:01:35;100886.59;;;21.62;44.67
73453;BME280;61687;56.232;43.854;2023-05-24T05:04:02;100890.34;;;21.75;43.86
73453;BME280;61687;56.232;43.854;2023-05-24T05:06:32;100892.72;;;21.93;44.37
73453;BME280;61687;56.232;43.854;2023-05-24T05:09:04;100887.25;;;22.06;43.74
73453;BME280;61687;56.232;43.854;2023-05-24T05:11:34;100889.09;;;22.13;42.78
73453;BME280;61687;56.232;43.854;2023-05-24T05:14:00;100877.44;;;22.18;42.94
73453;BME280;61687;56.232;43.854;2023-05-24T05:16:26;100869.31;;;22.24;43.45
73453;BME280;61687;56.232;43.854;2023-05-24T05:18:51;100874.75;;;22.31;43.30
73453;BME280;61687;56.232;43.854;2023-05-24T05:21:17;100879.19;;;22.28;43.55
73453;BME280;61687;56.232;43.854;2023-05-24T05:23:44;100877.97;;;22.29;42.43
73453;BME280;61687;56.232;43.854;2023-05-24T05:26:10;100885.16;;;22.47;41.85
73453;BME280;61687;56.232;43.854;2023-05-24T05:28:36;100882.84;;;22.58;42.14
73453;BME280;61687;56.232;43.854;2023-05-24T05:31:02;100885.03;;;22.67;42.14
73453;BME280;61687;56.232;43.854;2023-05-24T05:33:31;100881.63;;;22.59;42.42
73453;BME280;61687;56.232;43.854;2023-05-24T05:35:58;100869.25;;;22.44;42.75
73453;BME280;61687;56.232;43.854;2023-05-24T05:38:24;100877.53;;;22.48;42.03
73453;BME280;61687;56.232;43.854;2023-05-24T05:40:50;100874.75;;;22.48;42.00
73453;BME280;61687;56.232;43.854;2023-05-24T05:43:16;100871.34;;;22.56;42.13
73453;BME280;61687;56.232;43.854;2023-05-24T05:45:41;100873.50;;;22.82;41.97
73453;BME280;61687;56.232;43.854;2023-05-24T05:48:07;100876.16;;;23.02;41.17
73453;BME280;61687;56.232;43.854;2023-05-24T05:50:35;100872.28;;;23.12;41.28
73453;BME280;61687;56.232;43.854;2023-05-24T05:53:01;100868.94;;;23.18;41.37
73453;BME280;61687;56.232;43.854;2023-05-24T05:55:28;100862.47;;;23.21;41.85
73453;BME280;61687;56.232;43.854;2023-05-24T05:57:54;100870.59;;;23.32;40.89
73453;BME280;61687;56.232;43.854;2023-05-24T06:00:21;100864.69;;;23.42;41.49
73453;BME280;61687;56.232;43.854;2023-05-24T06:02:47;100862.72;;;23.56;40.85
73453;BME280;61687;56.232;43.854;2023-05-24T06:05:13;100860.03;;;23.65;40.73
73453;BME280;61687;56.232;43.854;2023-05-24T06:07:39;100856.91;;;23.76;40.51
73453;BME280;61687;56.232;43.854;2023-05-24T06:10:05;100849.78;;;23.88;40.31
73453;BME280;61687;56.232;43.854;2023-05-24T06:12:32;100848.22;;;24.13;40.56
73453;BME280;61687;56.232;43.854;2023-05-24T06:14:59;100838.53;;;24.40;39.86
73453;BME280;61687;56.232;43.854;2023-05-24T06:17:25;100836.50;;;24.53;38.45
73453;BME280;61687;56.232;43.854;2023-05-24T06:19:52;100837.88;;;24.71;38.43
73453;BME280;61687;56.232;43.854;2023-05-24T06:22:18;100833.59;;;24.92;38.38
73453;BME280;61687;56.232;43.854;2023-05-24T06:24:46;100837.25;;;25.02;38.64
73453;BME280;61687;56.232;43.854;2023-05-24T06:27:12;100846.88;;;25.23;38.83
73453;BME280;61687;56.232;43.854;2023-05-24T06:29:38;100835.94;;;25.38;37.37
73453;BME280;61687;56.232;43.854;2023-05-24T06:32:04;100839.22;;;25.46;37.27
73453;BME280;61687;56.232;43.854;2023-05-24T06:34:30;100837.81;;;25.41;35.81
73453;BME280;61687;56.232;43.854;2023-05-24T06:36:56;100833.44;;;25.40;35.33
73453;BME280;61687;56.232;43.854;2023-05-24T06:39:22;100832.66;;;25.40;35.00
73453;BME280;61687;56.232;43.854;2023-05-24T06:41:49;100828.59;;;25.41;34.90
73453;BME280;61687;56.232;43.854;2023-05-24T06:44:23;100838.66;;;25.29;35.44
73453;BME280;61687;56.232;43.854;2023-05-24T06:46:56;100824.91;;;25.22;35.18
73453;BME280;61687;56.232;43.854;2023-05-24T06:49:22;100825.34;;;25.20;35.48
73453;BME280;61687;56.232;43.854;2023-05-24T06:51:48;100822.22;;;25.18;36.22
73453;BME280;61687;56.232;43.854;2023-05-24T06:54:14;100828.03;;;25.24;35.65
73453;BME280;61687;56.232;43.854;2023-05-24T06:56:40;100817.78;;;25.30;36.40
73453;BME280;61687;56.232;43.854;2023-05-24T06:59:06;100822.66;;;25.39;36.45
73453;BME280;61687;56.232;43.854;2023-05-24T07:01:34;100817.78;;;25.52;37.04
73453;BME280;61687;56.232;43.854;2023-05-24T07:04:07;100818.94;;;25.64;35.63
73453;BME280;61687;56.232;43.854;2023-05-24T07:06:33;100824.56;;;25.64;35.72
73453;BME280;61687;56.232;43.854;2023-05-24T07:08:59;100813.81;;;25.72;36.25
73453;BME280;61687;56.232;43.854;2023-05-24T07:11:27;100820.56;;;25.84;36.27
73453;BME280;61687;56.232;43.854;2023-05-24T07:13:53;100812.66;;;25.92;36.40
73453;BME280;61687;56.232;43.854;2023-05-24T07:16:19;100815.91;;;25.90;35.58
73453;BME280;61687;56.232;43.854;2023-05-24T07:18:45;100819.03;;;25.92;35.33
73453;BME280;61687;56.232;43.854;2023-05-24T07:21:11;100818.72;;;25.90;35.91
73453;BME280;61687;56.232;43.854;2023-05-24T07:23:37;100822.47;;;25.96;35.74
73453;BME280;61687;56.232;43.854;2023-05-24T07:26:03;100819.41;;;26.13;35.57
73453;BME280;61687;56.232;43.854;2023-05-24T07:28:29;100821.97;;;26.29;34.92
73453;BME280;61687;56.232;43.854;2023-05-24T07:30:56;100815.41;;;26.42;35.41
73453;BME280;61687;56.232;43.854;2023-05-24T07:33:21;100802.81;;;26.56;35.01
73453;BME280;61687;56.232;43.854;2023-05-24T07:35:48;100827.00;;;26.44;35.26
73453;BME280;61687;56.232;43.854;2023-05-24T07:38:17;100812.16;;;26.34;35.27
73453;BME280;61687;56.232;43.854;2023-05-24T07:40:43;100811.06;;;26.50;34.99
73453;BME280;61687;56.232;43.854;2023-05-24T07:43:09;100817.94;;;26.68;34.69
73453;BME280;61687;56.232;43.854;2023-05-24T07:45:35;100822.94;;;26.73;34.39
73453;BME280;61687;56.232;43.854;2023-05-24T07:48:01;100818.41;;;26.66;34.54
73453;BME280;61687;56.232;43.854;2023-05-24T07:50:26;100820.44;;;26.84;35.95
73453;BME280;61687;56.232;43.854;2023-05-24T07:52:56;100812.94;;;27.00;35.42
73453;BME280;61687;56.232;43.854;2023-05-24T07:55:22;100809.84;;;26.98;36.04
73453;BME280;61687;56.232;43.854;2023-05-24T07:57:48;100806.41;;;26.94;36.43
73453;BME280;61687;56.232;43.854;2023-05-24T08:00:14;100805.94;;;26.95;36.08
73453;BME280;61687;56.232;43.854;2023-05-24T08:02:42;100800.78;;;26.94;36.95
73453;BME280;61687;56.232;43.854;2023-05-24T08:05:11;100800.16;;;27.08;36.77
73453;BME280;61687;56.232;43.854;2023-05-24T08:07:37;100802.31;;;27.04;36.90
73453;BME280;61687;56.232;43.854;2023-05-24T08:10:03;100794.66;;;27.05;37.02
73453;BME280;61687;56.232;43.854;2023-05-24T08:12:30;100811.53;;;27.05;37.71
73453;BME280;61687;56.232;43.854;2023-05-24T08:14:56;100801.09;;;26.96;36.19
73453;BME280;61687;56.232;43.854;2023-05-24T08:17:22;100797.31;;;26.99;36.94
73453;BME280;61687;56.232;43.854;2023-05-24T08:19:49;100806.84;;;27.11;37.26
73453;BME280;61687;56.232;43.854;2023-05-24T08:22:15;100807.16;;;27.13;37.17
73453;BME280;61687;56.232;43.854;2023-05-24T08:24:41;100801.22;;;27.20;37.24
73453;BME280;61687;56.232;43.854;2023-05-24T08:27:07;100809.78;;;27.26;37.40
73453;BME280;61687;56.232;43.854;2023-05-24T08:29:35;100813.53;;;27.32;37.96
73453;BME280;61687;56.232;43.854;2023-05-24T08:32:01;100805.59;;;27.12;38.28
73453;BME280;61687;56.232;43.854;2023-05-24T08:34:28;100818.53;;;27.28;38.04
73453;BME280;61687;56.232;43.854;2023-05-24T08:36:54;100820.41;;;27.22;37.86
73453;BME280;61687;56.232;43.854;2023-05-24T08:39:20;100831.47;;;27.53;37.12
73453;BME280;61687;56.232;43.854;2023-05-24T08:41:46;100824.56;;;27.64;37.74
73453;BME280;61687;56.232;43.854;2023-05-24T08:44:12;100825.09;;;27.87;36.50
73453;BME280;61687;56.232;43.854;2023-05-24T08:46:39;100824.66;;;27.69;37.50
73453;BME280;61687;56.232;43.854;2023-05-24T08:49:05;100822.69;;;27.61;37.91
73453;BME280;61687;56.232;43.854;2023-05-24T08:51:34;100824.72;;;27.51;37.20
73453;BME280;61687;56.232;43.854;2023-05-24T08:54:04;100813.91;;;27.59;37.26
73453;BME280;61687;56.232;43.854;2023-05-24T08:56:30;100819.41;;;27.43;37.59
73453;BME280;61687;56.232;43.854;2023-05-24T08:58:56;100815.03;;;27.42;37.31
73453;BME280;61687;56.232;43.854;2023-05-24T09:01:23;100824.44;;;27.49;38.04
73453;BME280;61687;56.232;43.854;2023-05-24T09:03:50;100829.09;;;27.61;37.67
73453;BME280;61687;56.232;43.854;2023-05-24T09:06:17;100819.31;;;27.81;38.02
73453;BME280;61687;56.232;43.854;2023-05-24T09:08:44;100814.41;;;27.91;37.38
73453;BME280;61687;56.232;43.854;2023-05-24T09:11:11;100816.78;;;27.92;36.77
73453;BME280;61687;56.232;43.854;2023-05-24T09:13:40;100830.59;;;27.81;37.46
73453;BME280;61687;56.232;43.854;2023-05-24T09:16:07;100826.00;;;27.50;38.04
73453;BME280;61687;56.232;43.854;2023-05-24T09:18:33;100829.16;;;27.33;38.48
73453;BME280;61687;56.232;43.854;2023-05-24T09:20:59;100828.88;;;27.12;38.87
73453;BME280;61687;56.232;43.854;2023-05-24T09:23:25;100828.28;;;27.08;38.93
73453;BME280;61687;56.232;43.854;2023-05-24T09:25:51;100832.78;;;27.15;38.56
73453;BME280;61687;56.232;43.854;2023-05-24T09:28:19;100823.97;;;27.41;38.64
73453;BME280;61687;56.232;43.854;2023-05-24T09:30:57;100834.13;;;27.57;38.85
73453;BME280;61687;56.232;43.854;2023-05-24T09:33:28;100827.88;;;27.53;38.58
73453;BME280;61687;56.232;43.854;2023-05-24T09:35:59;100831.78;;;27.46;38.26
73453;BME280;61687;56.232;43.854;2023-05-24T09:38:26;100828.84;;;27.31;38.80
73453;BME280;61687;56.232;43.854;2023-05-24T09:41:06;100835.59;;;27.24;38.89
73453;BME280;61687;56.232;43.854;2023-05-24T09:43:34;100833.41;;;27.19;39.19
73453;BME280;61687;56.232;43.854;2023-05-24T09:46:15;100829.91;;;27.34;38.98
73453;BME280;61687;56.232;43.854;2023-05-24T09:49:00;100838.81;;;27.51;38.52
73453;BME280;61687;56.232;43.854;2023-05-24T09:51:29;100827.09;;;27.52;38.67
73453;BME280;61687;56.232;43.854;2023-05-24T09:53:56;100830.81;;;27.59;39.11
73453;BME280;61687;56.232;43.854;2023-05-24T09:56:22;100825.63;;;27.66;39.50
73453;BME280;61687;56.232;43.854;2023-05-24T09:58:49;100832.66;;;27.71;38.95
73453;BME280;61687;56.232;43.854;2023-05-24T10:01:16;100835.50;;;27.62;38.88
73453;BME280;61687;56.232;43.854;2023-05-24T10:03:57;100834.13;;;27.57;39.39
73453;BME280;61687;56.232;43.854;2023-05-24T10:06:24;100826.59;;;27.45;40.04
73453;BME280;61687;56.232;43.854;2023-05-24T10:08:51;100831.63;;;27.40;39.92
73453;BME280;61687;56.232;43.854;2023-05-24T10:11:19;100837.28;;;27.31;40.45
73453;BME280;61687;56.232;43.854;2023-05-24T10:13:46;100827.59;;;27.23;40.27
73453;BME280;61687;56.232;43.854;2023-05-24T10:16:13;100834.34;;;27.16;40.76
73453;BME280;61687;56.232;43.854;2023-05-24T10:18:39;100832.47;;;27.13;40.23
73453;BME280;61687;56.232;43.854;2023-05-24T10:21:06;100826.34;;;27.24;40.07
73453;BME280;61687;56.232;43.854;2023-05-24T10:23:38;100833.22;;;27.32;40.18
73453;BME280;61687;56.232;43.854;2023-05-24T10:26:08;100826.16;;;27.37;39.99
73453;BME280;61687;56.232;43.854;2023-05-24T10:28:45;100827.88;;;27.43;40.59
73453;BME280;61687;56.232;43.854;2023-05-24T10:31:21;100836.00;;;27.51;40.39
73453;BME280;61687;56.232;43.854;2023-05-24T10:33:49;100824.41;;;27.58;40.36
73453;BME280;61687;56.232;43.854;2023-05-24T10:36:17;100838.16;;;27.65;39.83
73453;BME280;61687;56.232;43.854;2023-05-24T10:38:46;100835.47;;;27.71;39.74
73453;BME280;61687;56.232;43.854;2023-05-24T10:41:12;100828.38;;;27.85;39.79
73453;BME280;61687;56.232;43.854;2023-05-24T10:43:39;100834.50;;;28.17;39.38
73453;BME280;61687;56.232;43.854;2023-05-24T10:46:08;100837.13;;;28.45;38.32
73453;BME280;61687;56.232;43.854;2023-05-24T10:48:35;100844.00;;;28.68;37.79
73453;BME280;61687;56.232;43.854;2023-05-24T10:51:38;100841.00;;;28.72;37.96
73453;BME280;61687;56.232;43.854;2023-05-24T10:54:17;100842.25;;;28.71;38.45
73453;BME280;61687;56.232;43.854;2023-05-24T10:56:46;100839.41;;;28.56;37.98
73453;BME280;61687;56.232;43.854;2023-05-24T10:59:33;100847.16;;;28.46;38.20
73453;BME280;61687;56.232;43.854;2023-05-24T11:02:09;100832.03;;;28.34;39.13
73453;BME280;61687;56.232;43.854;2023-05-24T11:04:49;100844.81;;;28.20;38.90
73453;BME280;61687;56.232;43.854;2023-05-24T11:07:17;100842.47;;;28.19;39.45
73453;BME280;61687;56.232;43.854;2023-05-24T11:09:46;100838.56;;;28.16;39.70
73453;BME280;61687;56.232;43.854;2023-05-24T11:12:18;100843.47;;;27.97;39.80
73453;BME280;61687;56.232;43.854;2023-05-24T11:14:53;100841.09;;;27.71;40.15
73453;BME280;61687;56.232;43.854;2023-05-24T11:17:22;100838.19;;;27.56;40.46
73453;BME280;61687;56.232;43.854;2023-05-24T11:19:53;100834.59;;;27.55;40.60
73453;BME280;61687;56.232;43.854;2023-05-24T11:22:21;100835.50;;;27.62;40.30
73453;BME280;61687;56.232;43.854;2023-05-24T11:24:48;100829.31;;;27.82;40.17
73453;BME280;61687;56.232;43.854;2023-05-24T11:27:14;100832.47;;;28.08;40.40
73453;BME280;61687;56.232;43.854;2023-05-24T11:29:50;100833.88;;;28.62;39.43
73453;BME280;61687;56.232;43.854;2023-05-24T11:32:19;100824.91;;;29.18;38.07
73453;BME280;61687;56.232;43.854;2023-05-24T11:34:46;100820.94;;;29.24;38.30
73453;BME280;61687;56.232;43.854;2023-05-24T11:37:12;100829.16;;;29.52;38.62
73453;BME280;61687;56.232;43.854;2023-05-24T11:39:39;100824.91;;;29.78;37.55
73453;BME280;61687;56.232;43.854;2023-05-24T11:42:08;100827.09;;;29.89;37.45
73453;BME280;61687;56.232;43.854;2023-05-24T11:44:35;100821.88;;;30.38;37.09
73453;BME280;61687;56.232;43.854;2023-05-24T11:47:06;100829.31;;;31.03;36.20
73453;BME280;61687;56.232;43.854;2023-05-24T11:49:32;100824.94;;;31.98;34.72
73453;BME280;61687;56.232;43.854;2023-05-24T11:51:59;100812.38;;;33.91;31.54
73453;BME280;61687;56.232;43.854;2023-05-24T11:54:29;100811.28;;;35.43;29.04
73453;BME280;61687;56.232;43.854;2023-05-24T11:56:57;100813.72;;;36.33;27.68
73453;BME280;61687;56.232;43.854;2023-05-24T11:59:25;100807.44;;;36.15;28.04
73453;BME280;61687;56.232;43.854;2023-05-24T12:02:02;100799.16;;;36.75;27.23
73453;BME280;61687;56.232;43.854;2023-05-24T12:04:30;100791.00;;;36.98;26.54
73453;BME280;61687;56.232;43.854;2023-05-24T12:06:57;100792.69;;;37.53;25.91
73453;BME280;61687;56.232;43.854;2023-05-24T12:09:23;100785.00;;;36.06;27.60
73453;BME280;61687;56.232;43.854;2023-05-24T12:11:51;100793.50;;;36.50;27.45
73453;BME280;61687;56.232;43.854;2023-05-24T12:14:19;100791.69;;;35.34;29.26
73453;BME280;61687;56.232;43.854;2023-05-24T12:16:48;100791.38;;;34.17;31.01
73453;BME280;61687;56.232;43.854;2023-05-24T12:19:18;100802.13;;;33.48;31.57
73453;BME280;61687;56.232;43.854;2023-05-24T12:21:44;100810.47;;;32.46;32.40
73453;BME280;61687;56.232;43.854;2023-05-24T12:24:13;100803.81;;;31.62;33.80
73453;BME280;61687;56.232;43.854;2023-05-24T12:26:43;100801.13;;;31.79;33.99
73453;BME280;61687;56.232;43.854;2023-05-24T12:29:10;100800.38;;;32.33;33.01
73453;BME280;61687;56.232;43.854;2023-05-24T12:31:41;100800.28;;;32.88;32.16
73453;BME280;61687;56.232;43.854;2023-05-24T12:34:11;100814.84;;;32.41;33.16
73453;BME280;61687;56.232;43.854;2023-05-24T12:36:38;100803.91;;;31.73;34.50
73453;BME280;61687;56.232;43.854;2023-05-24T12:39:25;100799.13;;;30.94;35.65
73453;BME280;61687;56.232;43.854;2023-05-24T12:42:02;100806.25;;;30.42;36.18
73453;BME280;61687;56.232;43.854;2023-05-24T12:44:35;100805.84;;;29.93;36.99
73453;BME280;61687;56.232;43.854;2023-05-24T12:47:03;100815.31;;;29.39;37.95
73453;BME280;61687;56.232;43.854;2023-05-24T12:49:30;100806.81;;;28.79;39.21
73453;BME280;61687;56.232;43.854;2023-05-24T12:51:56;100816.50;;;28.39;40.14
73453;BME280;61687;56.232;43.854;2023-05-24T12:54:23;100814.28;;;28.19;40.83